Flag for Canada

Past Weather in 44°38'17.5"N, 63°33'52.3"W, Canada — Yesterday and Last 2 Weeks

Currently: 45 °F. Fog. (Weather station: Halifax International Airport, Canada). See more current weather

Past Weather in 44°38'17.5"N, 63°33'52.3"W — Graph

°F

44°38'17.5"N, 63°33'52.3"W Temperature Yesterday

Maximum temperature yesterday: 63 °F (at 2:00 pm)
Minimum temperature yesterday: 46 °F (at 11:00 pm)
Average temperature yesterday: 53 °F

High & Low Weather Summary for the Past Weeks

 TemperatureHumidityPressure
High72 °F (May 16, 1:00 pm)100% (May 6, 8:00 am)30.43 "Hg (May 6, 8:00 am)
Low36 °F (May 13, 4:11 am)28% (May 14, 2:47 pm)29.58 "Hg (May 7, 7:00 pm)
Average49 °F81%29.94 "Hg
* Reported May 4 10:00 pm — May 19 10:15 pm, 44°38'17.5"N, 63°33'52.3"W. Weather by CustomWeather, © 2024

Note: Actual official high and low records may vary slightly from our data, if they occured in-between our weather recording intervals... More about our weather records

44°38'17.5"N, 63°33'52.3"W Weather History for the Previous 24 Hours

Scroll right to see more
 ConditionsComfort  
Time TempWeatherWind HumidityBarometerVisibility
10:15 pm
Sun, May 19
45 °FDrizzle. Fog.10 mph100%30.13 "Hg2 mi
9:48 pm45 °FDrizzle. Fog.9 mph100%30.12 "Hg2 mi
9:34 pm46 °FDrizzle. Fog.10 mph100%30.12 "Hg2 mi
9:00 pm46 °FDrizzle. Fog.8 mph100%30.11 "Hg2 mi
8:35 pm46 °FDrizzle. Fog.12 mph100%30.12 "Hg2 mi
8:20 pm48 °FDrizzle. Fog.6 mph94%30.12 "Hg1 mi
8:00 pm48 °FDrizzle. Fog.7 mph94%30.11 "Hg1 mi
7:34 pm48 °FDrizzle. Fog.9 mph94%30.10 "Hg5 mi
7:00 pm48 °FLow clouds.9 mph94%30.10 "Hg12 mi
6:00 pm52 °FLow clouds.13 mph82%30.10 "Hg15 mi
5:00 pm54 °FMostly cloudy.12 mph82%30.10 "Hg12 mi
4:19 pm55 °FOvercast.14 mph82%30.10 "Hg15 mi
4:00 pm55 °FOvercast.10 mph77%30.11 "Hg15 mi
3:00 pm57 °FOvercast.9 mph72%30.11 "Hg15 mi
2:00 pm59 °FOvercast.12 mph72%30.11 "Hg15 mi
1:46 pm57 °FOvercast.13 mph72%30.11 "Hg15 mi
1:00 pm55 °FOvercast.15 mph77%30.12 "Hg15 mi
12:00 pm52 °FOvercast.13 mph82%30.14 "Hg15 mi
11:00 am48 °FLow clouds.9 mph94%30.15 "Hg15 mi
10:00 am46 °FLow clouds.12 mph100%30.15 "Hg10 mi
9:11 am46 °FFog.9 mph93%30.15 "Hg1 mi
9:00 am45 °FFog.10 mph100%30.15 "Hg1 mi
8:00 am45 °FFog.9 mph100%30.14 "Hg1 mi
7:00 am43 °FFog.9 mph100%30.14 "Hg1 mi
6:41 am43 °FFog.10 mph100%30.13 "Hg1 mi
6:00 am43 °FDrizzle. Fog.8 mph100%30.13 "Hg1 mi
5:33 am43 °FFog.7 mph100%30.12 "Hg1 mi
5:00 am43 °FFog.14 mph100%30.12 "Hg1 mi
4:34 am43 °FFog.9 mph100%30.12 "Hg1 mi
4:22 am43 °FFog.13 mph100%30.11 "Hg1 mi
4:00 am45 °FFog.9 mph100%30.11 "Hg1 mi
3:00 am45 °FFog.10 mph100%30.11 "Hg1 mi
2:00 am45 °FFog.13 mph100%30.12 "Hg1 mi
1:00 am45 °FFog.12 mph100%30.14 "Hg2 mi
12:00 am46 °FFog.12 mph100%30.15 "Hg3 mi
11:39 pm
Sat, May 18
46 °FLow clouds.10 mph100%30.15 "Hg8 mi
11:00 pm46 °FLow clouds.14 mph100%30.16 "Hg12 mi
Weather by CustomWeather, © 2024

See weather overview